createdAt,value
2023-03-22T00:00:29.034Z,2.57
2023-03-22T00:02:59.065Z,2.03
2023-03-22T00:05:27.678Z,1.80
2023-03-22T00:07:57.984Z,1.97
2023-03-22T00:10:27.570Z,2.40
2023-03-22T00:12:56.338Z,1.80
2023-03-22T00:15:24.865Z,1.90
2023-03-22T00:17:53.648Z,2.00
2023-03-22T00:20:24.451Z,2.08
2023-03-22T00:22:53.323Z,2.03
2023-03-22T00:25:22.209Z,2.10
2023-03-22T00:27:51.013Z,2.07
2023-03-22T00:30:20.085Z,2.30
2023-03-22T00:32:48.830Z,2.10
2023-03-22T00:35:17.628Z,2.43
2023-03-22T00:37:50.899Z,2.13
2023-03-22T00:40:19.840Z,2.13
2023-03-22T00:42:48.582Z,2.20
2023-03-22T00:45:17.225Z,2.30
2023-03-22T00:47:45.953Z,3.17
2023-03-22T00:50:14.555Z,1.70
2023-03-22T00:52:43.221Z,2.47
2023-03-22T00:55:14.133Z,2.43
2023-03-22T00:57:42.876Z,2.13
2023-03-22T01:00:16.264Z,2.03
2023-03-22T01:02:47.229Z,2.20
2023-03-22T01:05:22.132Z,2.00
2023-03-22T01:07:51.828Z,2.17
2023-03-22T01:10:21.954Z,2.37
2023-03-22T01:12:51.554Z,1.93
2023-03-22T01:15:20.471Z,2.70
2023-03-22T01:17:49.236Z,1.90
2023-03-22T01:20:17.892Z,2.43
2023-03-22T01:22:46.596Z,2.30
2023-03-22T01:25:15.344Z,2.37
2023-03-22T01:27:45.987Z,1.77
2023-03-22T01:30:15.061Z,1.67
2023-03-22T01:32:43.975Z,1.80
2023-03-22T01:35:12.996Z,1.63
2023-03-22T01:37:43.968Z,2.10
2023-03-22T01:40:14.808Z,1.70
2023-03-22T01:42:44.967Z,1.50
2023-03-22T01:45:40.856Z,1.57
2023-03-22T01:48:23.098Z,1.80
2023-03-22T01:50:58.551Z,1.87
2023-03-22T01:53:29.794Z,1.80
2023-03-22T01:55:59.810Z,1.70
2023-03-22T01:58:37.083Z,1.53
2023-03-22T02:01:09.057Z,2.03
2023-03-22T02:03:55.933Z,1.73
2023-03-22T02:06:26.919Z,2.03
2023-03-22T02:09:02.806Z,1.77
2023-03-22T02:11:34.841Z,1.73
2023-03-22T02:14:23.467Z,1.80
2023-03-22T02:17:24.024Z,1.87
2023-03-22T02:20:38.847Z,2.30
2023-03-22T02:23:47.555Z,2.37
2023-03-22T02:26:50.038Z,2.07
2023-03-22T02:29:27.341Z,2.73
2023-03-22T02:32:28.518Z,2.90
2023-03-22T02:35:40.085Z,2.53
2023-03-22T02:38:24.505Z,3.80
2023-03-22T02:41:06.245Z,3.23
2023-03-22T02:43:39.108Z,3.40
2023-03-22T02:46:11.172Z,3.47
2023-03-22T02:48:46.467Z,2.80
2023-03-22T02:51:22.292Z,5.13
2023-03-22T02:53:56.997Z,4.03
2023-03-22T02:56:31.111Z,4.57
2023-03-22T02:59:03.453Z,4.03
2023-03-22T03:01:36.384Z,4.50
2023-03-22T03:04:08.110Z,5.83
2023-03-22T03:06:39.954Z,5.77
2023-03-22T03:09:09.786Z,5.53
2023-03-22T03:11:39.813Z,5.80
2023-03-22T03:14:08.601Z,6.50
2023-03-22T03:16:37.270Z,6.10
2023-03-22T03:19:14.666Z,5.47
2023-03-22T03:21:53.680Z,6.10
2023-03-22T03:24:32.032Z,6.27
2023-03-22T03:27:07.174Z,7.40
2023-03-22T03:29:41.322Z,6.20
2023-03-22T03:32:15.864Z,6.30
2023-03-22T03:34:49.902Z,7.13
2023-03-22T03:37:21.911Z,7.03
2023-03-22T03:39:55.471Z,6.67
2023-03-22T03:42:28.086Z,6.80
2023-03-22T03:44:57.438Z,7.50
2023-03-22T03:47:26.746Z,6.40
2023-03-22T03:49:56.011Z,6.37
2023-03-22T03:52:26.173Z,6.63
2023-03-22T03:54:55.131Z,6.57
2023-03-22T03:57:31.322Z,6.80
2023-03-22T03:59:59.958Z,6.90
2023-03-22T04:02:54.960Z,7.30
2023-03-22T04:05:46.847Z,6.90
2023-03-22T04:08:15.917Z,7.93
2023-03-22T04:10:44.989Z,6.70
2023-03-22T04:13:14.998Z,7.30
2023-03-22T04:15:44.368Z,6.20
2023-03-22T04:18:16.273Z,6.93
2023-03-22T04:20:47.161Z,8.40
2023-03-22T04:23:15.746Z,7.10
2023-03-22T04:25:50.085Z,6.40
2023-03-22T04:28:26.124Z,6.37
2023-03-22T04:30:57.836Z,6.40
2023-03-22T04:33:49.868Z,5.97
2023-03-22T04:36:24.517Z,5.93
2023-03-22T04:39:10.676Z,6.17
2023-03-22T04:41:40.579Z,5.70
2023-03-22T04:44:10.736Z,5.97
2023-03-22T04:46:44.957Z,5.47
2023-03-22T04:49:13.538Z,6.10
2023-03-22T04:51:43.644Z,5.20
2023-03-22T04:54:28.027Z,5.47
2023-03-22T04:56:56.962Z,5.50
2023-03-22T04:59:28.978Z,5.10
2023-03-22T05:02:00.425Z,5.07
2023-03-22T05:04:34.137Z,6.07
2023-03-22T05:07:10.365Z,5.97
2023-03-22T05:09:47.484Z,5.43
2023-03-22T05:12:17.208Z,5.07
2023-03-22T05:15:10.750Z,4.83
2023-03-22T05:17:41.069Z,5.10
2023-03-22T05:20:11.657Z,4.97
2023-03-22T05:22:43.047Z,4.37
2023-03-22T05:25:12.875Z,5.40
2023-03-22T05:27:45.735Z,4.83
2023-03-22T05:30:34.762Z,5.30
2023-03-22T05:33:23.472Z,4.77
2023-03-22T05:35:55.887Z,5.33
2023-03-22T05:38:25.812Z,4.97
2023-03-22T05:40:57.898Z,4.80
2023-03-22T05:43:26.764Z,4.77
2023-03-22T05:45:56.694Z,4.13
2023-03-22T05:48:36.032Z,4.27
2023-03-22T05:51:07.666Z,4.73
2023-03-22T05:53:37.218Z,5.23
2023-03-22T05:56:13.259Z,4.03
2023-03-22T05:58:43.436Z,3.80
2023-03-22T06:01:17.195Z,4.70
2023-03-22T06:03:49.285Z,4.13
2023-03-22T06:06:41.924Z,3.40
2023-03-22T06:09:17.847Z,4.07
2023-03-22T06:11:51.238Z,3.70
2023-03-22T06:14:19.938Z,4.80
2023-03-22T06:17:14.480Z,3.60
2023-03-22T06:19:43.586Z,3.27
2023-03-22T06:22:14.895Z,3.93
2023-03-22T06:24:44.717Z,2.77
2023-03-22T06:27:19.502Z,3.77
2023-03-22T06:29:50.739Z,4.37
2023-03-22T06:32:24.671Z,2.77
2023-03-22T06:34:53.381Z,3.83
2023-03-22T06:37:24.130Z,3.20
2023-03-22T06:39:53.233Z,3.23
2023-03-22T06:42:26.043Z,3.73
2023-03-22T06:45:05.312Z,2.67
2023-03-22T06:47:38.422Z,3.47
2023-03-22T06:50:15.775Z,2.83
2023-03-22T06:53:16.576Z,2.73
2023-03-22T06:55:45.963Z,2.87
2023-03-22T06:58:24.232Z,4.07
2023-03-22T07:00:53.153Z,2.57
2023-03-22T07:03:26.025Z,2.87
2023-03-22T07:06:02.984Z,2.20
2023-03-22T07:08:34.331Z,2.80
2023-03-22T07:11:03.161Z,3.20
2023-03-22T07:13:31.799Z,2.47
2023-03-22T07:16:05.250Z,2.20
2023-03-22T07:18:41.998Z,3.37
2023-03-22T07:21:11.291Z,1.83
2023-03-22T07:23:42.622Z,2.50
2023-03-22T07:26:15.800Z,3.00
2023-03-22T07:28:47.500Z,1.63
2023-03-22T07:31:17.189Z,2.50
2023-03-22T07:33:54.332Z,2.07
2023-03-22T07:36:26.025Z,2.20
2023-03-22T07:38:56.016Z,1.70
2023-03-22T07:41:30.683Z,1.80
2023-03-22T07:44:18.517Z,2.40
2023-03-22T07:47:10.185Z,2.53
2023-03-22T07:50:07.501Z,2.10
2023-03-22T07:52:37.063Z,1.90
2023-03-22T07:55:06.756Z,1.70
2023-03-22T07:57:37.930Z,3.00
2023-03-22T08:00:09.705Z,2.07
2023-03-22T08:02:56.276Z,1.47
2023-03-22T08:05:52.652Z,1.80
2023-03-22T08:08:21.904Z,2.23
2023-03-22T08:10:51.751Z,2.10
2023-03-22T08:13:20.720Z,1.43
2023-03-22T08:15:49.284Z,2.47
2023-03-22T08:18:21.062Z,2.10
2023-03-22T08:20:56.275Z,1.33
2023-03-22T08:23:38.454Z,2.20
2023-03-22T08:26:24.376Z,1.83
2023-03-22T08:28:56.080Z,1.77
2023-03-22T08:31:24.639Z,1.93
2023-03-22T08:33:53.166Z,2.23
2023-03-22T08:36:23.859Z,1.80
2023-03-22T08:39:00.246Z,1.90
2023-03-22T08:41:43.410Z,2.03
2023-03-22T08:44:12.225Z,2.40
2023-03-22T08:46:42.181Z,2.40
2023-03-22T08:49:11.398Z,2.10
2023-03-22T08:51:45.455Z,2.37
2023-03-22T08:54:18.929Z,1.63
2023-03-22T08:57:23.873Z,2.00
2023-03-22T09:00:17.436Z,2.03
2023-03-22T09:02:53.215Z,1.97
2023-03-22T09:05:21.689Z,1.93
2023-03-22T09:07:55.082Z,1.83
2023-03-22T09:10:34.636Z,2.47
2023-03-22T09:13:03.308Z,2.07
2023-03-22T09:15:31.942Z,2.10
2023-03-22T09:18:19.502Z,1.47
2023-03-22T09:20:48.206Z,2.00
2023-03-22T09:23:22.112Z,2.10
2023-03-22T09:25:51.369Z,1.87
2023-03-22T09:28:24.139Z,2.23
2023-03-22T09:31:00.789Z,1.67
2023-03-22T09:33:29.956Z,1.80
2023-03-22T09:35:58.573Z,2.23
2023-03-22T09:38:32.559Z,2.03
2023-03-22T09:41:04.469Z,1.90
2023-03-22T09:43:38.847Z,2.53
2023-03-22T09:46:15.837Z,1.90
2023-03-22T09:48:48.255Z,1.60
2023-03-22T09:51:29.815Z,2.10
2023-03-22T09:53:59.871Z,1.87
2023-03-22T09:56:30.865Z,2.33
2023-03-22T09:59:07.420Z,2.47
2023-03-22T10:01:43.041Z,2.17
2023-03-22T10:04:28.432Z,2.47
2023-03-22T10:07:07.772Z,2.73
2023-03-22T10:09:44.994Z,2.30
2023-03-22T10:12:21.749Z,2.60
2023-03-22T10:14:58.777Z,4.97
2023-03-22T10:17:30.638Z,2.30
2023-03-22T10:20:05.363Z,2.77
2023-03-22T10:22:36.943Z,2.90
2023-03-22T10:25:09.219Z,3.87
2023-03-22T10:27:38.735Z,2.60
2023-03-22T10:30:15.239Z,2.23
2023-03-22T10:32:57.098Z,2.70
2023-03-22T10:35:26.795Z,2.07
2023-03-22T10:37:57.177Z,2.13
2023-03-22T10:40:30.387Z,1.97
2023-03-22T10:43:03.630Z,1.50
2023-03-22T10:45:34.714Z,2.17
2023-03-22T10:48:08.132Z,2.20
2023-03-22T10:50:39.051Z,2.10
2023-03-22T10:53:12.625Z,2.67
2023-03-22T10:55:44.299Z,2.60
2023-03-22T10:58:14.902Z,2.97
2023-03-22T11:00:47.337Z,2.17
2023-03-22T11:03:28.630Z,2.27
2023-03-22T11:06:02.409Z,2.10
2023-03-22T11:08:39.179Z,2.00
2023-03-22T11:11:15.904Z,2.90
2023-03-22T11:13:49.432Z,2.17
2023-03-22T11:16:20.227Z,2.33
2023-03-22T11:18:48.956Z,1.73
2023-03-22T11:21:18.870Z,2.20
2023-03-22T11:23:56.087Z,1.73
2023-03-22T11:26:34.677Z,2.17
2023-03-22T11:29:14.602Z,2.57
2023-03-22T11:31:55.792Z,2.33
2023-03-22T11:34:27.554Z,3.63
2023-03-22T11:36:57.621Z,2.87
2023-03-22T11:39:28.918Z,2.40
2023-03-22T11:42:04.171Z,2.30
2023-03-22T11:44:37.867Z,2.30
2023-03-22T11:47:09.952Z,2.20
2023-03-22T11:49:44.902Z,2.13
2023-03-22T11:52:18.529Z,1.57
2023-03-22T11:54:48.890Z,1.80
2023-03-22T11:57:22.489Z,2.35
2023-03-22T12:00:00.455Z,2.53
2023-03-22T12:02:30.605Z,2.15
2023-03-22T12:05:05.840Z,2.13
2023-03-22T12:07:36.566Z,2.47
2023-03-22T12:10:11.861Z,2.03
2023-03-22T12:12:46.860Z,2.47
2023-03-22T12:15:21.596Z,2.00
2023-03-22T12:17:56.845Z,2.67
2023-03-22T12:20:41.028Z,2.50
2023-03-22T12:23:15.407Z,1.97
2023-03-22T12:25:50.590Z,2.37
2023-03-22T12:28:24.334Z,2.37
2023-03-22T12:30:56.186Z,2.63
2023-03-22T12:33:27.748Z,2.37
2023-03-22T12:35:59.688Z,3.10
2023-03-22T12:38:35.998Z,2.07
2023-03-22T12:41:08.342Z,2.03
2023-03-22T12:43:48.721Z,2.40
2023-03-22T12:46:23.753Z,1.90
2023-03-22T12:48:56.071Z,1.67
2023-03-22T12:51:24.636Z,4.00
2023-03-22T12:53:55.635Z,2.03
2023-03-22T12:56:27.349Z,2.20
2023-03-22T12:59:02.405Z,3.00
2023-03-22T13:01:36.893Z,1.67
2023-03-22T13:04:27.547Z,1.83
2023-03-22T13:06:58.801Z,1.70
2023-03-22T13:09:40.477Z,2.03
2023-03-22T13:12:28.827Z,2.57
2023-03-22T13:15:01.685Z,2.07
2023-03-22T13:17:43.473Z,2.03
2023-03-22T13:20:31.148Z,2.70
2023-03-22T13:23:02.520Z,2.17
2023-03-22T13:25:34.882Z,2.50
2023-03-22T13:28:06.717Z,1.83
2023-03-22T13:30:48.070Z,2.40
2023-03-22T13:33:22.568Z,2.07
2023-03-22T13:35:54.246Z,1.60
2023-03-22T13:38:25.049Z,2.40
2023-03-22T13:41:00.701Z,2.30
2023-03-22T13:43:34.026Z,1.90
2023-03-22T13:46:12.420Z,2.13
2023-03-22T13:49:15.279Z,1.70
2023-03-22T13:51:44.507Z,2.23
2023-03-22T13:54:21.118Z,2.50
2023-03-22T13:56:54.180Z,2.23
2023-03-22T13:59:29.993Z,2.53
2023-03-22T14:02:04.761Z,2.50
2023-03-22T14:04:40.629Z,2.40
2023-03-22T14:07:20.719Z,2.73
2023-03-22T14:09:53.714Z,3.20
2023-03-22T14:12:26.594Z,3.10
2023-03-22T14:14:58.067Z,3.27
2023-03-22T14:17:35.434Z,3.47
2023-03-22T14:20:10.242Z,3.63
